sensor_id;sensor_type;location;lat;lon;timestamp;pressure;altitude;pressure_sealevel;temperature;humidity
68822;BME280;55834;50.870;4.606;2023-01-26T00:01:38;101867.78;;;0.29;56.55
68822;BME280;55834;50.870;4.606;2023-01-26T00:04:03;101868.72;;;0.04;57.43
68822;BME280;55834;50.870;4.606;2023-01-26T00:06:29;101869.63;;;-0.21;57.75
68822;BME280;55834;50.870;4.606;2023-01-26T00:08:55;101857.22;;;-0.30;58.40
68822;BME280;55834;50.870;4.606;2023-01-26T00:11:25;101866.63;;;-0.57;59.80
68822;BME280;55834;50.870;4.606;2023-01-26T00:13:51;101862.91;;;-0.14;60.33
68822;BME280;55834;50.870;4.606;2023-01-26T00:16:18;101854.28;;;-0.64;59.92
68822;BME280;55834;50.870;4.606;2023-01-26T00:18:43;101848.97;;;-0.68;59.43
68822;BME280;55834;50.870;4.606;2023-01-26T00:21:14;101837.41;;;-0.52;60.48
68822;BME280;55834;50.870;4.606;2023-01-26T00:23:40;101834.53;;;-0.35;59.04
68822;BME280;55834;50.870;4.606;2023-01-26T00:26:06;101836.50;;;-0.78;58.64
68822;BME280;55834;50.870;4.606;2023-01-26T00:28:32;101822.31;;;-0.38;60.64
68822;BME280;55834;50.870;4.606;2023-01-26T00:31:05;101821.91;;;-0.25;59.52
68822;BME280;55834;50.870;4.606;2023-01-26T00:33:30;101820.66;;;-0.61;58.65
68822;BME280;55834;50.870;4.606;2023-01-26T00:35:56;101809.66;;;-0.29;60.69
68822;BME280;55834;50.870;4.606;2023-01-26T00:38:21;101820.69;;;-0.09;59.69
68822;BME280;55834;50.870;4.606;2023-01-26T00:40:47;101817.13;;;-0.12;57.75
68822;BME280;55834;50.870;4.606;2023-01-26T00:43:12;101806.41;;;0.04;58.18
68822;BME280;55834;50.870;4.606;2023-01-26T00:45:38;101800.72;;;0.16;58.41
68822;BME280;55834;50.870;4.606;2023-01-26T00:48:03;101803.00;;;0.34;57.98
68822;BME280;55834;50.870;4.606;2023-01-26T00:50:28;101806.81;;;0.16;56.99
68822;BME280;55834;50.870;4.606;2023-01-26T00:52:54;101799.69;;;-0.16;58.50
68822;BME280;55834;50.870;4.606;2023-01-26T00:55:19;101792.78;;;0.11;59.18
68822;BME280;55834;50.870;4.606;2023-01-26T00:57:45;101793.81;;;0.16;57.79
68822;BME280;55834;50.870;4.606;2023-01-26T01:00:11;101787.81;;;-0.35;57.71
68822;BME280;55834;50.870;4.606;2023-01-26T01:02:41;101787.50;;;-0.45;59.41
68822;BME280;55834;50.870;4.606;2023-01-26T01:05:08;101787.41;;;-0.48;60.21
68822;BME280;55834;50.870;4.606;2023-01-26T01:07:33;101782.13;;;-0.25;59.34
68822;BME280;55834;50.870;4.606;2023-01-26T01:09:58;101781.16;;;-0.00;59.72
68822;BME280;55834;50.870;4.606;2023-01-26T01:12:25;101784.34;;;-0.09;58.33
68822;BME280;55834;50.870;4.606;2023-01-26T01:14:50;101785.97;;;-0.12;58.35
68822;BME280;55834;50.870;4.606;2023-01-26T01:17:15;101776.47;;;0.15;58.92
68822;BME280;55834;50.870;4.606;2023-01-26T01:19:41;101768.72;;;-0.37;58.28
68822;BME280;55834;50.870;4.606;2023-01-26T01:22:06;101766.38;;;-0.30;59.35
68822;BME280;55834;50.870;4.606;2023-01-26T01:24:32;101778.97;;;-0.15;59.12
68822;BME280;55834;50.870;4.606;2023-01-26T01:26:59;101770.63;;;-0.32;58.52
68822;BME280;55834;50.870;4.606;2023-01-26T01:29:25;101773.09;;;-0.36;59.28
68822;BME280;55834;50.870;4.606;2023-01-26T01:31:50;101770.13;;;-0.47;59.47
68822;BME280;55834;50.870;4.606;2023-01-26T01:34:15;101777.41;;;-0.62;60.03
68822;BME280;55834;50.870;4.606;2023-01-26T01:36:41;101772.66;;;-0.49;60.99
68822;BME280;55834;50.870;4.606;2023-01-26T01:39:06;101778.88;;;-0.44;59.79
68822;BME280;55834;50.870;4.606;2023-01-26T01:41:32;101771.66;;;0.00;60.97
68822;BME280;55834;50.870;4.606;2023-01-26T01:44:23;101769.22;;;0.05;58.95
68822;BME280;55834;50.870;4.606;2023-01-26T01:46:59;101767.69;;;0.12;59.11
68822;BME280;55834;50.870;4.606;2023-01-26T01:49:29;101772.19;;;0.17;58.13
68822;BME280;55834;50.870;4.606;2023-01-26T01:52:06;101767.59;;;0.09;58.96
68822;BME280;55834;50.870;4.606;2023-01-26T01:54:38;101759.03;;;0.11;58.70
68822;BME280;55834;50.870;4.606;2023-01-26T01:57:09;101758.56;;;0.24;58.80
68822;BME280;55834;50.870;4.606;2023-01-26T01:59:41;101750.34;;;0.39;58.57
68822;BME280;55834;50.870;4.606;2023-01-26T02:02:08;101741.97;;;0.50;57.68
68822;BME280;55834;50.870;4.606;2023-01-26T02:04:34;101740.00;;;0.41;57.54
68822;BME280;55834;50.870;4.606;2023-01-26T02:06:59;101744.09;;;0.04;57.06
68822;BME280;55834;50.870;4.606;2023-01-26T02:09:30;101742.69;;;-0.13;59.62
68822;BME280;55834;50.870;4.606;2023-01-26T02:12:17;101747.78;;;-0.16;59.29
68822;BME280;55834;50.870;4.606;2023-01-26T02:14:44;101738.22;;;-0.45;59.68
68822;BME280;55834;50.870;4.606;2023-01-26T02:17:10;101735.31;;;0.00;61.37
68822;BME280;55834;50.870;4.606;2023-01-26T02:25:09;101727.06;;;-0.42;60.57
68822;BME280;55834;50.870;4.606;2023-01-26T02:27:37;101731.53;;;-0.11;60.60
68822;BME280;55834;50.870;4.606;2023-01-26T02:30:03;101725.13;;;-0.22;60.06
68822;BME280;55834;50.870;4.606;2023-01-26T02:32:30;101721.75;;;-0.19;60.06
68822;BME280;55834;50.870;4.606;2023-01-26T02:34:56;101719.16;;;-0.19;60.65
68822;BME280;55834;50.870;4.606;2023-01-26T02:37:22;101721.75;;;-0.18;60.11
68822;BME280;55834;50.870;4.606;2023-01-26T02:40:01;101716.25;;;-0.00;59.75
68822;BME280;55834;50.870;4.606;2023-01-26T02:42:28;101717.38;;;-0.48;60.76
68822;BME280;55834;50.870;4.606;2023-01-26T02:45:07;101711.00;;;-0.30;61.15
68822;BME280;55834;50.870;4.606;2023-01-26T02:47:32;101709.72;;;-0.16;60.83
68822;BME280;55834;50.870;4.606;2023-01-26T02:49:57;101723.25;;;0.03;60.79
68822;BME280;55834;50.870;4.606;2023-01-26T02:52:26;101722.66;;;0.11;60.21
68822;BME280;55834;50.870;4.606;2023-01-26T02:54:52;101724.13;;;0.32;59.72
68822;BME280;55834;50.870;4.606;2023-01-26T02:57:37;101728.69;;;0.39;58.08
68822;BME280;55834;50.870;4.606;2023-01-26T03:00:06;101730.59;;;0.44;58.85
68822;BME280;55834;50.870;4.606;2023-01-26T03:02:32;101732.50;;;0.50;58.55
68822;BME280;55834;50.870;4.606;2023-01-26T03:04:57;101734.22;;;0.21;57.23
68822;BME280;55834;50.870;4.606;2023-01-26T03:07:22;101733.38;;;0.22;58.50
68822;BME280;55834;50.870;4.606;2023-01-26T03:09:48;101729.31;;;0.01;57.94
68822;BME280;55834;50.870;4.606;2023-01-26T03:12:13;101727.41;;;-0.04;59.06
68822;BME280;55834;50.870;4.606;2023-01-26T03:14:39;101730.72;;;-0.08;59.00
68822;BME280;55834;50.870;4.606;2023-01-26T03:17:04;101731.31;;;0.12;60.19
68822;BME280;55834;50.870;4.606;2023-01-26T03:19:29;101726.56;;;0.26;59.38
68822;BME280;55834;50.870;4.606;2023-01-26T03:22:13;101725.94;;;0.34;58.57
68822;BME280;55834;50.870;4.606;2023-01-26T03:24:57;101731.47;;;0.45;58.42
68822;BME280;55834;50.870;4.606;2023-01-26T03:27:47;101735.78;;;0.44;57.63
68822;BME280;55834;50.870;4.606;2023-01-26T03:30:14;101729.28;;;0.59;58.67
68822;BME280;55834;50.870;4.606;2023-01-26T03:32:40;101729.31;;;0.60;58.05
68822;BME280;55834;50.870;4.606;2023-01-26T03:35:06;101732.19;;;0.41;57.24
68822;BME280;55834;50.870;4.606;2023-01-26T03:37:32;101739.53;;;0.54;58.57
68822;BME280;55834;50.870;4.606;2023-01-26T03:40:04;101736.22;;;0.60;58.24
68822;BME280;55834;50.870;4.606;2023-01-26T03:42:49;101736.94;;;0.54;57.13
68822;BME280;55834;50.870;4.606;2023-01-26T03:45:33;101728.81;;;0.43;57.64
68822;BME280;55834;50.870;4.606;2023-01-26T03:48:16;101725.44;;;0.46;59.19
68822;BME280;55834;50.870;4.606;2023-01-26T03:51:00;101720.13;;;0.41;58.85
68822;BME280;55834;50.870;4.606;2023-01-26T03:53:44;101723.16;;;0.58;59.36
68822;BME280;55834;50.870;4.606;2023-01-26T03:56:29;101727.28;;;0.50;58.34
68822;BME280;55834;50.870;4.606;2023-01-26T03:59:00;101721.41;;;0.57;58.38
68822;BME280;55834;50.870;4.606;2023-01-26T04:01:36;101716.66;;;0.73;58.62
68822;BME280;55834;50.870;4.606;2023-01-26T04:04:02;101717.75;;;0.79;58.22
68822;BME280;55834;50.870;4.606;2023-01-26T04:06:48;101722.13;;;0.52;57.97
68822;BME280;55834;50.870;4.606;2023-01-26T04:09:33;101723.47;;;0.69;59.35
68822;BME280;55834;50.870;4.606;2023-01-26T04:12:00;101711.00;;;0.56;57.36
68822;BME280;55834;50.870;4.606;2023-01-26T04:14:26;101716.66;;;0.73;58.74
68822;BME280;55834;50.870;4.606;2023-01-26T04:17:10;101713.34;;;0.77;58.46
68822;BME280;55834;50.870;4.606;2023-01-26T04:19:54;101702.88;;;0.74;57.64
68822;BME280;55834;50.870;4.606;2023-01-26T04:22:39;101706.22;;;0.71;58.05
68822;BME280;55834;50.870;4.606;2023-01-26T04:25:12;101707.53;;;0.87;58.70
68822;BME280;55834;50.870;4.606;2023-01-26T04:27:39;101710.22;;;0.90;58.50
68822;BME280;55834;50.870;4.606;2023-01-26T04:30:06;101705.16;;;0.95;57.25
68822;BME280;55834;50.870;4.606;2023-01-26T04:32:31;101708.56;;;0.62;57.52
68822;BME280;55834;50.870;4.606;2023-01-26T04:34:57;101705.56;;;0.78;58.99
68822;BME280;55834;50.870;4.606;2023-01-26T04:37:23;101706.81;;;0.91;58.12
68822;BME280;55834;50.870;4.606;2023-01-26T04:39:48;101692.94;;;0.92;57.88
68822;BME280;55834;50.870;4.606;2023-01-26T04:42:13;101699.31;;;1.03;57.86
68822;BME280;55834;50.870;4.606;2023-01-26T04:44:39;101686.03;;;0.93;57.13
68822;BME280;55834;50.870;4.606;2023-01-26T04:47:05;101689.13;;;0.49;57.87
68822;BME280;55834;50.870;4.606;2023-01-26T04:49:30;101688.59;;;0.61;59.17
68822;BME280;55834;50.870;4.606;2023-01-26T04:51:56;101691.22;;;0.31;58.82
68822;BME280;55834;50.870;4.606;2023-01-26T04:54:21;101698.06;;;0.29;58.86
68822;BME280;55834;50.870;4.606;2023-01-26T04:56:47;101693.66;;;0.26;60.13
68822;BME280;55834;50.870;4.606;2023-01-26T04:59:12;101684.78;;;0.48;59.88
68822;BME280;55834;50.870;4.606;2023-01-26T05:01:38;101694.75;;;0.33;59.06
68822;BME280;55834;50.870;4.606;2023-01-26T05:04:04;101685.22;;;0.63;60.33
68822;BME280;55834;50.870;4.606;2023-01-26T05:06:30;101693.22;;;0.71;58.53
68822;BME280;55834;50.870;4.606;2023-01-26T05:08:55;101686.72;;;0.85;59.15
68822;BME280;55834;50.870;4.606;2023-01-26T05:11:21;101688.78;;;0.99;58.42
68822;BME280;55834;50.870;4.606;2023-01-26T05:13:46;101689.16;;;1.12;58.48
68822;BME280;55834;50.870;4.606;2023-01-26T05:16:12;101680.59;;;1.17;57.46
68822;BME280;55834;50.870;4.606;2023-01-26T05:18:41;101680.25;;;1.04;56.86
68822;BME280;55834;50.870;4.606;2023-01-26T05:21:07;101680.81;;;0.93;57.65
68822;BME280;55834;50.870;4.606;2023-01-26T05:23:32;101675.69;;;0.94;58.84
68822;BME280;55834;50.870;4.606;2023-01-26T05:25:58;101676.94;;;1.10;58.59
68822;BME280;55834;50.870;4.606;2023-01-26T05:28:23;101681.44;;;0.82;57.65
68822;BME280;55834;50.870;4.606;2023-01-26T05:30:48;101686.56;;;0.20;58.91
68822;BME280;55834;50.870;4.606;2023-01-26T05:33:14;101687.63;;;0.57;61.19
68822;BME280;55834;50.870;4.606;2023-01-26T05:35:40;101689.34;;;0.87;60.65
68822;BME280;55834;50.870;4.606;2023-01-26T05:38:06;101684.66;;;1.05;59.38
68822;BME280;55834;50.870;4.606;2023-01-26T05:40:31;101694.47;;;1.17;58.71
68822;BME280;55834;50.870;4.606;2023-01-26T05:42:56;101698.16;;;1.25;58.66
68822;BME280;55834;50.870;4.606;2023-01-26T05:45:22;101698.31;;;1.31;57.69
68822;BME280;55834;50.870;4.606;2023-01-26T05:47:47;101688.72;;;1.30;57.36
68822;BME280;55834;50.870;4.606;2023-01-26T05:50:13;101697.53;;;1.35;57.47
68822;BME280;55834;50.870;4.606;2023-01-26T05:52:41;101695.91;;;1.06;57.13
68822;BME280;55834;50.870;4.606;2023-01-26T05:55:06;101695.00;;;1.04;58.85
68822;BME280;55834;50.870;4.606;2023-01-26T05:57:32;101691.00;;;1.17;59.34
68822;BME280;55834;50.870;4.606;2023-01-26T05:59:57;101693.69;;;1.21;58.19
68822;BME280;55834;50.870;4.606;2023-01-26T06:02:23;101693.13;;;1.31;58.61
68822;BME280;55834;50.870;4.606;2023-01-26T06:04:48;101695.06;;;1.42;58.47
68822;BME280;55834;50.870;4.606;2023-01-26T06:07:14;101690.72;;;1.41;56.97
68822;BME280;55834;50.870;4.606;2023-01-26T06:09:40;101695.00;;;1.39;56.97
68822;BME280;55834;50.870;4.606;2023-01-26T06:12:12;101693.25;;;1.38;57.19
68822;BME280;55834;50.870;4.606;2023-01-26T06:14:38;101697.16;;;1.20;56.76
68822;BME280;55834;50.870;4.606;2023-01-26T06:17:04;101707.28;;;1.09;58.35
68822;BME280;55834;50.870;4.606;2023-01-26T06:19:29;101700.03;;;1.31;59.31
68822;BME280;55834;50.870;4.606;2023-01-26T06:21:54;101708.00;;;1.39;57.67
68822;BME280;55834;50.870;4.606;2023-01-26T06:24:19;101710.69;;;1.42;57.27
68822;BME280;55834;50.870;4.606;2023-01-26T06:26:48;101711.78;;;1.50;57.01
68822;BME280;55834;50.870;4.606;2023-01-26T06:29:14;101708.38;;;1.52;57.17
68822;BME280;55834;50.870;4.606;2023-01-26T06:31:39;101712.56;;;1.47;56.97
68822;BME280;55834;50.870;4.606;2023-01-26T06:34:05;101715.16;;;1.47;56.80
68822;BME280;55834;50.870;4.606;2023-01-26T06:36:31;101707.50;;;1.52;57.82
68822;BME280;55834;50.870;4.606;2023-01-26T06:38:56;101711.16;;;1.60;57.83
68822;BME280;55834;50.870;4.606;2023-01-26T06:41:21;101714.72;;;1.65;57.35
68822;BME280;55834;50.870;4.606;2023-01-26T06:43:47;101722.66;;;1.70;56.96
68822;BME280;55834;50.870;4.606;2023-01-26T06:46:14;101722.78;;;1.74;57.04
68822;BME280;55834;50.870;4.606;2023-01-26T06:48:40;101732.34;;;1.75;56.49
68822;BME280;55834;50.870;4.606;2023-01-26T06:53:43;101730.75;;;1.80;56.36
68822;BME280;55834;50.870;4.606;2023-01-26T06:56:11;101731.69;;;1.84;56.81
68822;BME280;55834;50.870;4.606;2023-01-26T06:58:37;101728.28;;;1.88;56.18
68822;BME280;55834;50.870;4.606;2023-01-26T07:01:03;101735.31;;;1.91;56.25
68822;BME280;55834;50.870;4.606;2023-01-26T07:03:28;101735.34;;;1.92;55.96
68822;BME280;55834;50.870;4.606;2023-01-26T07:05:54;101733.63;;;1.93;56.14
68822;BME280;55834;50.870;4.606;2023-01-26T07:08:20;101736.22;;;1.93;55.87
68822;BME280;55834;50.870;4.606;2023-01-26T07:10:45;101734.56;;;1.95;56.27
68822;BME280;55834;50.870;4.606;2023-01-26T07:13:10;101741.50;;;1.96;55.56
68822;BME280;55834;50.870;4.606;2023-01-26T07:15:36;101735.44;;;1.95;56.25
68822;BME280;55834;50.870;4.606;2023-01-26T07:18:05;101738.03;;;1.95;55.57
68822;BME280;55834;50.870;4.606;2023-01-26T07:20:31;101731.09;;;1.97;56.02
68822;BME280;55834;50.870;4.606;2023-01-26T07:22:58;101731.16;;;1.99;55.91
68822;BME280;55834;50.870;4.606;2023-01-26T07:25:24;101734.69;;;2.01;55.60
68822;BME280;55834;50.870;4.606;2023-01-26T07:27:54;101732.97;;;2.03;56.56
68822;BME280;55834;50.870;4.606;2023-01-26T07:30:35;101735.56;;;2.01;56.26
68822;BME280;55834;50.870;4.606;2023-01-26T07:33:01;101732.78;;;1.94;55.55
68822;BME280;55834;50.870;4.606;2023-01-26T07:35:32;101739.78;;;1.96;56.05
68822;BME280;55834;50.870;4.606;2023-01-26T07:37:58;101746.53;;;1.88;55.17
68822;BME280;55834;50.870;4.606;2023-01-26T07:40:23;101740.38;;;1.85;56.35
68822;BME280;55834;50.870;4.606;2023-01-26T07:42:49;101738.75;;;1.90;56.26
68822;BME280;55834;50.870;4.606;2023-01-26T07:45:14;101746.72;;;1.96;56.92
68822;BME280;55834;50.870;4.606;2023-01-26T07:47:42;101757.13;;;1.96;55.91
68822;BME280;55834;50.870;4.606;2023-01-26T07:50:09;101752.31;;;1.75;55.62
68822;BME280;55834;50.870;4.606;2023-01-26T07:52:34;101756.75;;;1.44;55.78
68822;BME280;55834;50.870;4.606;2023-01-26T07:54:59;101764.81;;;1.55;57.91
68822;BME280;55834;50.870;4.606;2023-01-26T07:57:25;101771.22;;;1.01;57.21
68822;BME280;55834;50.870;4.606;2023-01-26T07:59:50;101770.19;;;1.28;59.23
68822;BME280;55834;50.870;4.606;2023-01-26T08:02:15;101767.19;;;1.46;59.25
68822;BME280;55834;50.870;4.606;2023-01-26T08:04:41;101757.69;;;1.48;57.31
68822;BME280;55834;50.870;4.606;2023-01-26T08:07:06;101775.69;;;1.07;57.64
68822;BME280;55834;50.870;4.606;2023-01-26T08:09:31;101770.94;;;1.22;59.18
68822;BME280;55834;50.870;4.606;2023-01-26T08:11:57;101766.06;;;1.36;59.25
68822;BME280;55834;50.870;4.606;2023-01-26T08:14:23;101775.63;;;1.04;57.54
68822;BME280;55834;50.870;4.606;2023-01-26T08:16:48;101772.25;;;0.76;59.55
68822;BME280;55834;50.870;4.606;2023-01-26T08:19:14;101775.94;;;1.16;61.24
68822;BME280;55834;50.870;4.606;2023-01-26T08:21:39;101772.44;;;1.47;58.30
68822;BME280;55834;50.870;4.606;2023-01-26T08:24:05;101772.91;;;1.32;57.77
68822;BME280;55834;50.870;4.606;2023-01-26T08:26:31;101780.59;;;1.28;58.15
68822;BME280;55834;50.870;4.606;2023-01-26T08:28:56;101776.22;;;0.94;59.00
68822;BME280;55834;50.870;4.606;2023-01-26T08:31:22;101782.59;;;0.75;59.59
68822;BME280;55834;50.870;4.606;2023-01-26T08:33:50;101792.69;;;0.94;60.77
68822;BME280;55834;50.870;4.606;2023-01-26T08:36:16;101789.78;;;1.15;61.00
68822;BME280;55834;50.870;4.606;2023-01-26T08:38:43;101795.28;;;1.26;59.82
68822;BME280;55834;50.870;4.606;2023-01-26T08:41:09;101795.94;;;1.17;59.33
68822;BME280;55834;50.870;4.606;2023-01-26T08:43:35;101796.75;;;0.56;59.10
68822;BME280;55834;50.870;4.606;2023-01-26T08:46:00;101807.88;;;0.80;60.52
68822;BME280;55834;50.870;4.606;2023-01-26T08:48:26;101805.72;;;0.67;59.39
68822;BME280;55834;50.870;4.606;2023-01-26T08:50:57;101808.50;;;1.02;61.24
68822;BME280;55834;50.870;4.606;2023-01-26T08:53:23;101806.13;;;1.09;59.16
68822;BME280;55834;50.870;4.606;2023-01-26T08:55:49;101805.31;;;1.12;59.36
68822;BME280;55834;50.870;4.606;2023-01-26T08:58:15;101806.09;;;1.40;60.04
68822;BME280;55834;50.870;4.606;2023-01-26T09:00:40;101809.66;;;1.13;58.88
68822;BME280;55834;50.870;4.606;2023-01-26T09:03:06;101799.00;;;1.35;60.09
68822;BME280;55834;50.870;4.606;2023-01-26T09:05:36;101798.78;;;1.26;58.10
68822;BME280;55834;50.870;4.606;2023-01-26T09:08:05;101816.56;;;1.11;59.12
68822;BME280;55834;50.870;4.606;2023-01-26T09:10:31;101808.22;;;0.64;61.51
68822;BME280;55834;50.870;4.606;2023-01-26T09:12:57;101814.63;;;1.04;61.95
68822;BME280;55834;50.870;4.606;2023-01-26T09:15:23;101814.53;;;1.32;61.89
68822;BME280;55834;50.870;4.606;2023-01-26T09:17:49;101814.22;;;1.53;60.92
68822;BME280;55834;50.870;4.606;2023-01-26T09:20:15;101815.00;;;1.49;58.42
68822;BME280;55834;50.870;4.606;2023-01-26T09:22:40;101811.22;;;1.38;59.57
68822;BME280;55834;50.870;4.606;2023-01-26T09:25:07;101818.84;;;1.64;60.00
68822;BME280;55834;50.870;4.606;2023-01-26T09:27:32;101824.78;;;0.96;58.33
68822;BME280;55834;50.870;4.606;2023-01-26T09:29:58;101823.91;;;1.26;60.64
68822;BME280;55834;50.870;4.606;2023-01-26T09:32:24;101823.44;;;1.41;59.61
68822;BME280;55834;50.870;4.606;2023-01-26T09:34:49;101814.28;;;1.55;60.30
68822;BME280;55834;50.870;4.606;2023-01-26T09:37:15;101825.88;;;1.34;58.57
68822;BME280;55834;50.870;4.606;2023-01-26T09:39:40;101826.69;;;1.33;59.97
68822;BME280;55834;50.870;4.606;2023-01-26T09:42:30;101829.50;;;1.40;58.51
68822;BME280;55834;50.870;4.606;2023-01-26T09:50:02;101807.56;;;1.98;57.93
68822;BME280;55834;50.870;4.606;2023-01-26T09:52:37;101817.41;;;2.11;57.33
68822;BME280;55834;50.870;4.606;2023-01-26T09:55:13;101813.31;;;2.22;57.80
68822;BME280;55834;50.870;4.606;2023-01-26T09:57:51;101813.59;;;2.33;57.65
68822;BME280;55834;50.870;4.606;2023-01-26T10:08:31;101823.34;;;0.76;62.25
68822;BME280;55834;50.870;4.606;2023-01-26T10:11:10;101824.88;;;1.29;61.58
68822;BME280;55834;50.870;4.606;2023-01-26T10:13:37;101832.78;;;0.16;62.26
68822;BME280;55834;50.870;4.606;2023-01-26T10:16:06;101830.41;;;-0.03;65.72
68822;BME280;55834;50.870;4.606;2023-01-26T10:18:38;101831.00;;;0.71;64.36
68822;BME280;55834;50.870;4.606;2023-01-26T10:21:06;101829.97;;;0.66;64.04
68822;BME280;55834;50.870;4.606;2023-01-26T10:23:34;101831.19;;;0.77;63.31
68822;BME280;55834;50.870;4.606;2023-01-26T10:26:14;101833.97;;;1.45;62.98
68822;BME280;55834;50.870;4.606;2023-01-26T10:28:42;101821.31;;;1.59;60.09
68822;BME280;55834;50.870;4.606;2023-01-26T10:31:15;101826.09;;;1.75;60.60
68822;BME280;55834;50.870;4.606;2023-01-26T10:33:57;101829.03;;;1.54;59.13
68822;BME280;55834;50.870;4.606;2023-01-26T10:36:23;101829.84;;;1.87;60.82
68822;BME280;55834;50.870;4.606;2023-01-26T10:38:50;101821.31;;;1.94;58.51
68822;BME280;55834;50.870;4.606;2023-01-26T10:44:19;101826.38;;;1.88;59.25
68822;BME280;55834;50.870;4.606;2023-01-26T10:47:04;101826.59;;;1.62;59.63
68822;BME280;55834;50.870;4.606;2023-01-26T10:49:30;101828.06;;;1.86;61.23
68822;BME280;55834;50.870;4.606;2023-01-26T10:52:16;101829.38;;;1.36;59.86
68822;BME280;55834;50.870;4.606;2023-01-26T10:54:45;101832.50;;;0.91;62.56
68822;BME280;55834;50.870;4.606;2023-01-26T10:57:28;101844.31;;;0.53;63.19
68822;BME280;55834;50.870;4.606;2023-01-26T10:59:56;101840.81;;;0.80;65.14
68822;BME280;55834;50.870;4.606;2023-01-26T11:05:23;101832.81;;;1.67;63.18
68822;BME280;55834;50.870;4.606;2023-01-26T11:07:50;101830.78;;;1.90;62.26
68822;BME280;55834;50.870;4.606;2023-01-26T11:10:38;101825.13;;;1.72;62.39
68822;BME280;55834;50.870;4.606;2023-01-26T11:13:19;101823.19;;;1.98;61.91
68822;BME280;55834;50.870;4.606;2023-01-26T11:15:59;101817.81;;;1.92;59.86
68822;BME280;55834;50.870;4.606;2023-01-26T11:21:19;101831.91;;;1.33;62.17
68822;BME280;55834;50.870;4.606;2023-01-26T11:29:16;101817.53;;;1.14;63.44
68822;BME280;55834;50.870;4.606;2023-01-26T11:32:25;101824.72;;;1.56;63.12
68822;BME280;55834;50.870;4.606;2023-01-26T11:38:20;101820.75;;;2.05;61.35
68822;BME280;55834;50.870;4.606;2023-01-26T11:43:39;101836.56;;;1.45;61.82
68822;BME280;55834;50.870;4.606;2023-01-26T11:46:27;101832.34;;;1.17;64.15
68822;BME280;55834;50.870;4.606;2023-01-26T11:49:14;101825.72;;;0.98;64.96
68822;BME280;55834;50.870;4.606;2023-01-26T11:59:51;101812.41;;;0.87;67.45
68822;BME280;55834;50.870;4.606;2023-01-26T12:02:35;101807.13;;;1.48;65.63
68822;BME280;55834;50.870;4.606;2023-01-26T12:05:50;101812.72;;;0.68;65.99
68822;BME280;55834;50.870;4.606;2023-01-26T12:08:26;101821.53;;;-0.10;68.69
68822;BME280;55834;50.870;4.606;2023-01-26T12:11:07;101803.03;;;0.64;68.13
68822;BME280;55834;50.870;4.606;2023-01-26T12:22:21;101790.59;;;1.12;68.64
68822;BME280;55834;50.870;4.606;2023-01-26T12:24:56;101790.81;;;0.60;67.84
68822;BME280;55834;50.870;4.606;2023-01-26T12:27:33;101792.53;;;0.89;67.84
68822;BME280;55834;50.870;4.606;2023-01-26T12:33:04;101782.75;;;1.43;66.76
68822;BME280;55834;50.870;4.606;2023-01-26T12:41:18;101783.38;;;1.34;68.12
68822;BME280;55834;50.870;4.606;2023-01-26T12:46:23;101781.13;;;1.16;69.66
68822;BME280;55834;50.870;4.606;2023-01-26T12:49:04;101771.59;;;1.83;67.83
68822;BME280;55834;50.870;4.606;2023-01-26T12:51:40;101772.47;;;1.84;67.32
68822;BME280;55834;50.870;4.606;2023-01-26T12:56:53;101773.66;;;0.66;72.11
68822;BME280;55834;50.870;4.606;2023-01-26T13:01:52;101766.66;;;0.64;73.13
68822;BME280;55834;50.870;4.606;2023-01-26T13:04:17;101764.59;;;1.46;71.98
68822;BME280;55834;50.870;4.606;2023-01-26T13:06:43;101757.00;;;1.91;70.70
68822;BME280;55834;50.870;4.606;2023-01-26T13:14:26;101756.00;;;1.50;70.44
68822;BME280;55834;50.870;4.606;2023-01-26T13:16:53;101753.66;;;2.35;69.32
68822;BME280;55834;50.870;4.606;2023-01-26T13:27:27;101753.69;;;1.27;73.49
68822;BME280;55834;50.870;4.606;2023-01-26T13:29:53;101750.13;;;1.57;72.45
68822;BME280;55834;50.870;4.606;2023-01-26T13:35:08;101755.19;;;0.56;76.03
68822;BME280;55834;50.870;4.606;2023-01-26T13:38:06;101749.34;;;1.61;74.54
68822;BME280;55834;50.870;4.606;2023-01-26T13:40:40;101748.34;;;1.56;74.17
68822;BME280;55834;50.870;4.606;2023-01-26T13:48:22;101760.72;;;2.40;71.42
68822;BME280;55834;50.870;4.606;2023-01-26T13:50:51;101749.09;;;3.09;70.09
68822;BME280;55834;50.870;4.606;2023-01-26T13:53:40;101741.09;;;3.00;69.07
68822;BME280;55834;50.870;4.606;2023-01-26T13:56:28;101746.53;;;3.12;68.74
68822;BME280;55834;50.870;4.606;2023-01-26T13:59:03;101744.50;;;3.43;68.55
68822;BME280;55834;50.870;4.606;2023-01-26T14:01:29;101742.91;;;3.51;67.61
68822;BME280;55834;50.870;4.606;2023-01-26T14:04:03;101753.41;;;3.54;67.41
68822;BME280;55834;50.870;4.606;2023-01-26T14:06:28;101750.19;;;3.19;68.14
68822;BME280;55834;50.870;4.606;2023-01-26T14:08:55;101750.22;;;3.72;68.56
68822;BME280;55834;50.870;4.606;2023-01-26T14:11:22;101751.03;;;3.70;67.69
68822;BME280;55834;50.870;4.606;2023-01-26T14:13:53;101748.91;;;3.47;68.66
68822;BME280;55834;50.870;4.606;2023-01-26T14:16:26;101751.38;;;3.91;67.37
68822;BME280;55834;50.870;4.606;2023-01-26T14:19:12;101754.09;;;3.97;66.06
68822;BME280;55834;50.870;4.606;2023-01-26T14:24:11;101752.22;;;3.89;66.10
68822;BME280;55834;50.870;4.606;2023-01-26T14:26:37;101754.41;;;4.19;65.01
68822;BME280;55834;50.870;4.606;2023-01-26T14:29:02;101746.66;;;3.67;65.65
68822;BME280;55834;50.870;4.606;2023-01-26T14:31:35;101756.97;;;4.17;66.34
68822;BME280;55834;50.870;4.606;2023-01-26T14:34:00;101753.63;;;4.24;65.92
68822;BME280;55834;50.870;4.606;2023-01-26T14:36:28;101751.22;;;4.41;64.88
68822;BME280;55834;50.870;4.606;2023-01-26T14:38:54;101751.28;;;4.44;64.26
68822;BME280;55834;50.870;4.606;2023-01-26T14:41:28;101747.19;;;4.02;63.80
68822;BME280;55834;50.870;4.606;2023-01-26T14:43:55;101753.78;;;4.37;65.61
68822;BME280;55834;50.870;4.606;2023-01-26T14:49:00;101754.56;;;4.31;65.03
68822;BME280;55834;50.870;4.606;2023-01-26T14:51:27;101756.69;;;2.99;69.19